KHST/HST METAR and TAF weather

Enter ICAO airport designator
Station Type Date Time Source
KHST METAR 2020/03/31 05:56 UTC NOAA

KHST 310556Z AUTO 00000KT 10SM CLR 21/21 A2996 RMK AO2 SLP149 T02130208 10250 20207 57016


Station Type Date Time Source
KHST Decoded METAR 2020/03/31 05:56 UTC NOAA

Homestead Air Force Base, FL, United States (KHST) 25-29N 080-23W
Mar 31, 2020 - 01:56 AM EDT / 2020.03.31 0556 UTC
Wind: Calm:0
Visibility: 10 mile(s):0
Sky conditions: clear
Temperature: 70.3 F (21.3 C)
Dew Point: 69.4 F (20.8 C)
Relative Humidity: 96%
Pressure (altimeter): 29.96 in. Hg (1014 hPa)
Pressure tendency: 0.05 inches (1.6 hPa) lower than three hours ago
ob: KHST 310556Z AUTO 00000KT 10SM CLR 21/21 A2996 RMK AO2 SLP149 T02130208 10250 20207 57016
cycle: 6

Station Type Date Time Source
KHST TAF 2020/03/31 03:03 UTC NOAA

TAF TAF KHST 310300Z 3103/0109 18005KT 9999 SCT025 QNH2993INS
TEMPO 3108/3112 22004KT 3200 BR
BECMG 3115/3116 23010G15KT 9999 SCT035 QNH2980INS
BECMG 3123/3124 25006KT 9999 FEW035 QNH2975INS TX30/3119Z TN21/3110Z

Example: see airport list